West Melbourne, Florida
Current Conditions -  °F | °C
As of 1:53 AM on Sunday 21 Dec 2014 (Local Time) from KMLB Reporting Station
Broken Clouds Broken Clouds  
Wind Chill: 19°   Ceiling: 9500
Heat Index: 19°   Visibility: 10mi
Dew Point: 16°   Wind: 3mph
Humidity: 84%   Direction: 190°S
Pressure: 30.07"   Gusts: NA
Location:  28.0786°N, 80.6027°W
Report Text: KMLB 210653Z AUTO 19003KT 10SM BKN095 19/16 A3007 RMK AO2 SLP183 T01890161
Loading
Personal Weather Stations






























Interactive Weather Map New forecast layout! Learn more

10-Day Weather Forecast

Advertisements
Track Severe Weather on mobile